Pos First Name Last Name YOB Country Start
Num
Time Swim T1 Bike T2 Run
1 David Bill 1990 SUI 20055 01:57:23 00:21:26 00:01:46 00:59:49 00:01:09 00:33:11
2 Michael Birchmore 1990 GBR 20076 01:58:50 00:21:18 00:01:58 00:59:49 00:01:16 00:34:27
3 Iain Gillam 1990 GBR 20079 01:58:57 00:22:54 00:01:58 00:57:02 00:01:18 00:35:43
4 Daniel Jenkin 1986 GBR 20088 01:59:12 00:22:36 00:02:14 00:59:25 00:01:14 00:33:42
5 Jean Risser 1988 FRA 20071 01:59:21 00:19:52 00:01:59 01:00:23 00:01:15 00:35:51
6 Martin Schürch 1987 SUI 20065 02:00:27 00:22:55 00:02:08 00:59:30 00:01:18 00:34:35
7 Sam Begg 1990 GBR 20074 02:00:48 00:22:30 00:02:08 00:59:48 00:01:24 00:34:56
8 David Langston 1988 GBR 20083 02:01:18 00:18:52 00:02:12 00:59:58 00:01:27 00:38:47
9 Thomas Wade 1989 GBR 20081 02:01:39 00:19:20 00:02:03 01:00:56 00:01:21 00:37:58
10 Christian Fässler 1990 SUI 20058 02:02:26 00:24:00 00:02:11 01:01:03 00:01:21 00:33:50
11 David Koster 1989 SUI 20062 02:02:35 00:21:28 00:02:03 01:00:51 00:01:26 00:36:45
12 Fabian Dutli 1990 SUI 20056 02:02:45 00:24:23 00:02:03 00:59:07 00:01:34 00:35:37
13 David Atkinson 1986 GBR 20090 02:02:57 00:23:31 00:01:57 01:00:36 00:01:10 00:35:41
14 Kristian Rød 1989 NOR 20100 02:04:07 00:21:42 00:01:59 01:02:32 00:01:23 00:36:30
15 Matteo Venzi 1986 ITA 20099 02:04:44 00:22:13 00:02:08 01:01:44 00:01:25 00:37:13
16 Alexander Huber 1988 AUT 20068 02:06:11 00:23:35 00:02:06 01:01:23 00:01:25 00:37:40
17 Sven Anderlind 1987 SUI 20054 02:06:30 00:19:18 00:02:07 01:00:54 00:01:37 00:42:31
18 James Eacott 1986 GBR 20089 02:06:34 00:23:28 00:02:00 00:59:50 00:01:34 00:39:41
19 Oliver Leonard 1986 GBR 20087 02:07:13 00:24:03 00:02:10 00:59:15 00:01:33 00:40:11
20 Michael Huber 1988 SUI 20060 02:07:43 00:26:52 00:02:07 01:00:41 00:01:20 00:36:41
21 Boe Harper 1988 GBR 20084 02:07:58 00:23:20 00:02:29 01:02:41 00:01:34 00:37:53
22 Johannes Diedershagen 1990 GER 20094 02:08:21 00:23:57 00:02:07 01:04:17 00:01:21 00:36:38
23 Alexis Rochat 1975 SUI 20164 02:08:54 00:25:05 00:02:27 01:00:43 00:01:33 00:39:05
24 Hamish Shaw 1988 GBR 20082 02:09:05 00:21:22 00:02:06 01:03:17 00:01:24 00:40:54
25 Adrien Vives 1987 FRA 20073 02:09:07 00:21:20 00:02:05 01:05:54 00:01:28 00:38:18
26 Mark Frost 1990 GBR 20077 02:09:47 00:25:16 00:02:13 01:02:26 00:01:30 00:38:20
27 Robert Fryer 1986 GBR 20091 02:09:52 00:21:42 00:02:32 01:04:10 00:01:32 00:39:55
28 Jack Macfarlane 1990 GBR 20080 02:10:02 00:23:18 00:02:14 01:02:54 00:01:31 00:40:02
29 Alistair Wood 1990 GBR 20078 02:10:17 00:24:47 00:02:24 01:01:41 00:01:25 00:39:59
30 Arnaud Margot 1988 SUI 20063 02:10:25 00:26:43 00:02:09 01:01:36 00:01:45 00:38:11
31 Romain Benvenuto 1987 FRA 20072 02:10:37 00:24:06 00:02:16 01:04:00 00:01:22 00:38:51
32 Tom Carter 1987 GBR 20085 02:10:46 00:22:50 00:02:20 01:02:28 00:01:30 00:41:35
33 James Smith 1990 GBR 20092 02:12:02 00:24:34 00:02:27 01:03:20 00:01:28 00:40:11
34 Camille Cy Corsin Haffter 1989 SUI 20059 02:12:33 00:23:37 00:02:47 01:03:59 00:01:45 00:40:23
35 David Dew 1990 GBR 20075 02:14:32 00:23:00 00:02:12 01:06:30 00:01:21 00:41:28
36 Einfalt Tomaž 1990 SLO 20101 02:15:21 00:24:34 00:02:43 01:07:09 00:01:44 00:39:09
37 Daniel Pölzleitner 1986 AUT 20069 02:16:57 00:25:39 00:02:19 01:00:58 00:01:33 00:46:27
38 Marc Walder 1989 SUI 20102 02:18:09 00:23:02 00:02:32 01:09:06 00:01:33 00:41:54
39 Oliver Schwarz 1986 SUI 20064 02:19:43 00:25:23 00:02:27 01:08:44 00:01:38 00:41:30
40 David Forchelet 1989 SUI 20057 02:20:04 00:24:37 00:02:13 01:07:09 00:01:41 00:44:24
41 Ciril Jenzer 1989 SUI 20061 02:20:16 00:24:53 00:03:04 01:05:44 00:01:40 00:44:53
42 Marco Corti 1986 ITA 20097 02:27:38 00:32:07 00:02:40 01:00:29 00:01:53 00:50:27
43 Felix Zobrist 1989 SUI 20067 02:28:41 00:32:19 00:03:17 01:05:44 00:01:54 00:45:26
DNF Michael Knudsen 1988 DEN 20070 DNS 00:00:00 00:00:00 00:00:00 00:00:00 00:00:00
DNF John Tindell 1986 GBR 20086 DNS 00:00:00 00:00:00 00:00:00 00:00:00 00:00:00
DNF Pierre Merunka 1987 GER 20093 DNS 00:00:00 00:00:00 00:00:00 00:00:00 00:00:00
DNF Meir Abeshra 1988 ISR 20095 DNS 00:00:00 00:00:00 00:00:00 00:00:00 00:00:00
DNF Raffaele Piccinonno 1988 ITA 20096 DNS 00:00:00 00:00:00 00:00:00 00:00:00 00:00:00
DNF Stefano Rossi 1987 ITA 20098 DNS 00:00:00 00:00:00 00:00:00 00:00:00 00:00:00
Program notes:

Distances: Swim 1500 m (1 loop); Bike 40.8 km (2 laps) Run 10 km (3 laps)
Water temperature 21º C. Air temperature 19º C. Wetsuit swim.
Technical Delegate: Esther Sanchez/ESP, Pascal Godel/FRA
Race Referee: Sarah Taylor/GBR
Competition Jury: Esther Sanchez/ESP, Eugene Kraus/LUX, Oliver Imfeld/SUI